DATI METEO

OGGI
Time Temp. P.to rug.. Umid. Press.
00:09 2.6 2 96 1000.3
00:18 2.6 2 96 1000.5
00:28 2.6 2 96 1000.6
00:49 2.5 1.8 95 1000.9
00:59 2.5 1.8 95 1001.1
01:09 2.5 1.8 95 1001.7
01:19 2.5 1.8 95 1001.7
01:29 2.4 1.7 95 1001.7
01:39 2.4 1.5 94 1002.5
01:50 2.2 1.3 94 1002.8
02:00 2.1 1.2 94 1003.4
02:14 1.9 0.6 91 1003.9
02:24 1.7 -0.2 87 1004.3
02:34 1.6 -0.1 88 1004.4
02:44 1.6 0.1 90 1004.4
02:55 1.6 0.1 90 1004.6
03:05 1.6 0.1 90 1004.6
03:14 1.6 0.1 90 1004.9
03:24 1.6 0.1 90 1005.1
03:35 1.6 -0.1 88 1005.2
03:45 1.6 -0.1 88 1005
03:55 1.6 -0.1 88 1005
04:05 1.6 0 89 1005.3
04:15 1.5 0 90 1005.6
04:25 1.5 0.2 91 1005.6
04:35 1.5 0.3 92 1006.2
04:46 1.5 0.3 92 1006
04:56 1.6 0.4 92 1006
05:06 1.6 0.4 92 1006.2
05:16 1.5 0.2 91 1006.3
05:26 1.5 0.2 91 1006.5
05:36 1.5 0.2 91 1006.5
05:46 1.4 0.2 92 1006.4
05:57 1.3 0.1 92 1006.5
06:06 1.3 0.1 92 1006.7
06:16 1.3 0 91 1006.5
06:26 1.3 -0.1 90 1006.6
06:37 1.3 -0.3 89 1006.5
06:47 1.2 -0.5 88 1006.3
06:57 1.2 -0.5 88 1006.5
07:07 1.2 -0.4 89 1006.3
07:17 1.2 -0.1 91 1006.5
07:27 1.3 0.1 92 1006.5
07:37 1.4 0.2 92 1006.7
07:48 1.5 0.3 92 1006.9
07:58 1.6 0.3 91 1006.9
08:07 1.6 0.3 91 1006.9
08:18 1.7 0.4 91 1007
08:28 1.7 0.4 91 1006.7
08:38 1.7 0.4 91 1006.7
08:48 1.8 0.3 90 1006.7
08:58 1.9 -0.3 85 1006.5
09:08 2 -0.4 84 1006.4
09:18 2.1 -0.1 85 1007.1
09:28 2.2 0 85 1007.2
09:39 2.2 0.3 87 1007.4
09:49 2.2 0.4 88 1007.7
09:58 2.4 0.5 87 1008.1
10:09 2.5 0.6 87 1008.1
10:19 2.5 0.7 88 1008
10:29 2.5 0.6 87 1007.8
10:39 2.5 0.7 88 1007.7
10:50 2.5 0.7 88 1007.8
10:59 2.5 0.7 88 1007.6
11:09 2.5 0.6 87 1007.4
11:20 2.5 0.6 87 1007
11:30 2.4 0.6 88 1006.9
11:40 2.4 0.8 89 1007.1
11:49 2.4 0.9 90 1006.9
12:00 2.4 0.9 90 1007.1
12:10 2.4 0.9 90 1006.9
12:20 2.5 1.2 91 1007
12:30 2.5 1 90 1007
12:41 2.5 1 90 1006.7
12:50 2.6 1 89 1006.7
13:00 2.6 1 89 1006.7
13:11 2.7 0.8 87 1006.6
13:21 2.7 0.6 86 1006.3
13:31 2.8 0.9 87 1005.8
13:41 2.9 0.8 86 1005.7
13:51 2.9 0.6 85 1005.2
14:01 2.9 0.6 85 1005.2
14:11 2.8 0.5 85 1005.1
14:21 2.8 0.7 86 1004.4
14:31 2.8 0.7 86 1004.1
14:41 2.8 0.4 84 1004.1
14:51 2.8 0.4 84 1003.8
15:02 2.9 0.5 84 1003.4
15:12 2.9 0.8 86 1003.2
15:21 2.8 0.9 87 1003.1

STATISTICHE GIORNALIERE

2021-01-25
TEMPERATURA
MEDIA
2.1
MASSIMA
2.9
13:41
MINIMA
1.2
06:47
PRESSIONE
MEDIA
1005.6
MASSIMA
1008.1
09:58
MINIMA
1000.3
00:09
PUNTO DI RUGIADA
MEDIA
0.5
MASSIMA
2.0
00:09
MINIMA
-0.5
06:47
UMIDITÀ
MEDIA
90
MASSIMA
96
00:09
MINIMA
84
09:08
TEMPERATURA (°C)
MINIMA
1.2
MASSIMA
2.9
MEDIA
2.1
PRESSIONE (hpa)
MINIMA
1000.3
MASSIMA
1008.1
MEDIA
1005.6
DEVICE